Time;durP1;ratioP1;P1;durP2;ratioP2;P2;SDS_P1;SDS_P2;PMS_P1;PMS_P2;Temp;Humidity;BMP_temperature;BMP_pressure;BME280_temperature;BME280_humidity;BME280_pressure;Samples;Min_cycle;Max_cycle;Signal;HPM_P1;HPM_P2
2021/03/08 00:00:36;;;;;;;21.90;12.90;;;2.80;1.00;;;;;;5021673;28;20183;-73
2021/03/08 00:03:03;;;;;;;23.67;12.03;;;2.90;1.00;;;;;;5019722;28;20215;-73
2021/03/08 00:05:28;;;;;;;18.90;12.67;;;3.10;1.00;;;;;;5018019;28;20463;-74
2021/03/08 00:07:54;;;;;;;19.30;11.33;;;3.10;1.00;;;;;;5021021;28;20447;-73
2021/03/08 00:10:21;;;;;;;20.07;12.37;;;3.10;1.00;;;;;;5012855;28;20452;-73
2021/03/08 00:12:48;;;;;;;18.60;12.93;;;3.00;1.00;;;;;;5021213;28;20501;-74
2021/03/08 00:15:15;;;;;;;26.90;13.43;;;3.00;1.00;;;;;;5014358;28;20452;-74
2021/03/08 00:17:41;;;;;;;21.60;13.37;;;3.10;1.00;;;;;;5018567;28;21354;-73
2021/03/08 00:20:13;;;;;;;22.87;13.47;;;3.10;1.00;;;;;;5022553;28;22801;-74
2021/03/08 00:22:40;;;;;;;23.43;13.70;;;3.20;1.00;;;;;;5018049;28;20531;-73
2021/03/08 00:25:12;;;;;;;21.37;14.80;;;3.20;1.00;;;;;;5021974;28;20976;-73
2021/03/08 00:27:37;;;;;;;24.60;13.40;;;3.20;1.00;;;;;;5019649;28;20452;-73
2021/03/08 00:30:05;;;;;;;21.03;13.57;;;3.20;1.00;;;;;;5002401;28;20755;-73
2021/03/08 00:32:32;;;;;;;20.27;12.43;;;3.20;1.00;;;;;;5016334;28;20798;-73
2021/03/08 00:34:58;;;;;;;19.53;12.77;;;3.10;1.00;;;;;;5019955;28;20776;-73
2021/03/08 00:37:30;;;;;;;20.00;13.33;;;3.20;1.00;;;;;;5017783;28;20485;-74
2021/03/08 00:39:58;;;;;;;22.03;12.57;;;3.20;1.00;;;;;;5019030;28;20497;-74
2021/03/08 00:42:24;;;;;;;20.67;13.00;;;3.20;1.00;;;;;;5023453;28;20530;-74
2021/03/08 00:44:51;;;;;;;22.57;13.53;;;3.10;1.00;;;;;;5019676;28;20513;-74
2021/03/08 00:47:17;;;;;;;21.20;12.70;;;3.10;1.00;;;;;;5015249;28;21306;-74
2021/03/08 00:49:42;;;;;;;22.53;12.83;;;3.30;1.00;;;;;;5018816;28;20546;-74
2021/03/08 00:52:09;;;;;;;20.67;12.87;;;3.10;1.00;;;;;;4996501;28;20178;-75
2021/03/08 00:54:35;;;;;;;22.17;13.03;;;3.10;1.00;;;;;;4998774;28;20742;-74
2021/03/08 00:57:01;;;;;;;26.33;14.90;;;3.20;1.00;;;;;;5000241;28;20202;-74
2021/03/08 00:59:26;;;;;;;28.67;14.87;;;3.30;1.00;;;;;;5025593;28;20811;-74
2021/03/08 01:01:54;;;;;;;19.80;14.23;;;3.30;1.00;;;;;;5010549;28;20644;-75
2021/03/08 01:04:21;;;;;;;22.30;13.80;;;3.20;1.00;;;;;;4982101;28;20972;-74
2021/03/08 01:06:47;;;;;;;25.53;14.87;;;3.20;1.00;;;;;;5015026;28;20447;-74
2021/03/08 01:09:13;;;;;;;18.93;12.80;;;3.10;1.00;;;;;;5002694;28;21909;-73
2021/03/08 01:11:39;;;;;;;17.93;12.00;;;3.10;1.00;;;;;;5002491;28;20452;-73
2021/03/08 01:14:11;;;;;;;28.23;13.10;;;3.10;1.00;;;;;;5001694;28;21099;-73
2021/03/08 01:16:46;;;;;;;23.63;13.40;;;3.20;1.00;;;;;;5019637;28;20467;-73
2021/03/08 01:19:12;;;;;;;26.50;14.77;;;3.20;1.00;;;;;;5005796;28;20472;-73
2021/03/08 01:21:38;;;;;;;27.00;15.70;;;3.10;1.00;;;;;;5003941;28;20621;-74
2021/03/08 01:24:04;;;;;;;27.90;14.90;;;3.00;1.00;;;;;;5026094;28;22011;-73
2021/03/08 01:26:33;;;;;;;20.77;12.77;;;3.00;1.00;;;;;;5002689;28;20871;-74
2021/03/08 01:28:59;;;;;;;22.00;13.67;;;3.10;1.00;;;;;;5022028;28;21035;-73
2021/03/08 01:31:25;;;;;;;24.60;14.53;;;3.10;1.00;;;;;;5022400;28;20482;-73
2021/03/08 01:33:51;;;;;;;24.23;14.30;;;3.00;1.00;;;;;;5024658;28;20222;-73
2021/03/08 01:36:18;;;;;;;24.30;14.40;;;3.10;1.00;;;;;;5021484;28;20210;-73
2021/03/08 01:38:45;;;;;;;21.20;13.67;;;3.10;1.00;;;;;;5014086;28;20534;-74
2021/03/08 01:41:10;;;;;;;18.80;12.70;;;3.20;1.00;;;;;;5016885;28;21182;-73
2021/03/08 01:43:36;;;;;;;21.07;14.07;;;3.20;1.00;;;;;;5020382;28;20934;-73
2021/03/08 01:46:02;;;;;;;23.73;14.73;;;3.20;1.00;;;;;;5026498;28;20649;-73
2021/03/08 01:48:31;;;;;;;24.50;14.70;;;3.30;1.00;;;;;;5026160;28;20642;-73
2021/03/08 01:50:57;;;;;;;21.97;14.83;;;3.20;1.00;;;;;;5028171;28;20539;-73
2021/03/08 01:53:28;;;;;;;24.07;15.50;;;3.20;1.00;;;;;;5023231;28;21073;-75
2021/03/08 01:55:55;;;;;;;25.27;14.73;;;3.10;1.00;;;;;;5023067;28;20766;-73
2021/03/08 01:58:21;;;;;;;21.57;13.07;;;3.00;1.00;;;;;;5002260;28;20461;-75
2021/03/08 02:00:46;;;;;;;31.33;16.00;;;2.90;1.00;;;;;;5027473;28;20902;-72
2021/03/08 02:03:13;;;;;;;24.00;14.40;;;2.90;1.00;;;;;;5023994;28;20542;-73
2021/03/08 02:05:42;;;;;;;26.30;15.10;;;3.00;1.00;;;;;;5021863;28;20528;-73
2021/03/08 02:08:10;;;;;;;20.63;14.20;;;3.00;1.00;;;;;;5022122;28;20535;-73
2021/03/08 02:10:39;;;;;;;28.50;14.20;;;3.00;1.00;;;;;;5018939;28;20456;-72
2021/03/08 02:13:36;;;;;;;20.40;12.80;;;3.00;1.00;;;;;;5017870;28;20518;-73
2021/03/08 02:16:12;;;;;;;19.83;13.53;;;3.00;1.00;;;;;;5022743;28;21016;-74
2021/03/08 02:18:48;;;;;;;25.40;13.77;;;3.00;1.00;;;;;;5020253;28;20465;-74
2021/03/08 02:21:32;;;;;;;24.40;14.10;;;3.10;1.00;;;;;;5020371;28;20472;-74
2021/03/08 02:24:26;;;;;;;23.07;15.00;;;3.20;1.00;;;;;;5016616;28;20801;-74
2021/03/08 02:26:58;;;;;;;26.83;15.80;;;3.20;1.00;;;;;;5017521;28;20867;-74
2021/03/08 02:29:49;;;;;;;24.70;15.40;;;3.20;1.00;;;;;;5021259;28;20437;-73
2021/03/08 02:32:37;;;;;;;25.43;15.23;;;3.20;1.00;;;;;;5022099;28;20580;-74
2021/03/08 02:35:09;;;;;;;23.87;14.93;;;2.90;1.00;;;;;;5022758;28;20470;-74
2021/03/08 02:37:52;;;;;;;29.10;15.47;;;3.00;1.00;;;;;;5021383;28;20903;-73
2021/03/08 02:40:24;;;;;;;26.47;15.23;;;3.10;1.00;;;;;;5023943;28;20491;-74
2021/03/08 02:42:56;;;;;;;26.57;15.67;;;3.10;1.00;;;;;;5026607;28;20948;-74
2021/03/08 02:45:27;;;;;;;27.00;15.93;;;3.10;1.00;;;;;;5019041;28;20444;-73
2021/03/08 02:47:54;;;;;;;28.20;16.77;;;3.10;1.00;;;;;;5019117;28;20468;-74
2021/03/08 02:50:26;;;;;;;26.37;14.30;;;3.00;1.00;;;;;;5022916;28;20446;-74
2021/03/08 02:52:59;;;;;;;31.43;16.90;;;2.90;1.00;;;;;;5009653;28;20478;-73
2021/03/08 02:55:37;;;;;;;27.30;15.80;;;3.00;1.00;;;;;;5019378;28;20451;-73
2021/03/08 02:58:05;;;;;;;26.00;16.37;;;3.00;1.00;;;;;;5000563;28;21055;-73
2021/03/08 03:00:32;;;;;;;27.90;17.20;;;3.00;1.00;;;;;;5024341;28;20447;-73
2021/03/08 03:03:00;;;;;;;27.63;16.50;;;3.00;1.00;;;;;;5015341;28;20656;-73
2021/03/08 03:05:26;;;;;;;26.53;16.60;;;3.00;1.00;;;;;;5027299;28;20976;-74
2021/03/08 03:07:55;;;;;;;27.40;14.90;;;2.90;1.00;;;;;;5022504;28;20527;-74
2021/03/08 03:10:27;;;;;;;27.30;15.00;;;3.00;1.00;;;;;;5017656;28;20453;-73
2021/03/08 03:12:54;;;;;;;28.27;16.90;;;3.00;1.00;;;;;;5023812;28;20474;-73
2021/03/08 03:15:20;;;;;;;30.47;18.30;;;3.00;1.00;;;;;;5018225;28;20463;-73
2021/03/08 03:17:47;;;;;;;28.20;16.37;;;3.00;1.00;;;;;;5011715;28;20487;-74
2021/03/08 03:20:16;;;;;;;29.00;16.93;;;3.00;1.00;;;;;;5026599;28;20769;-74
2021/03/08 03:22:45;;;;;;;32.13;17.93;;;3.00;1.00;;;;;;5023320;28;21107;-73
2021/03/08 03:25:16;;;;;;;34.10;18.93;;;2.90;1.00;;;;;;5016492;28;20448;-73
2021/03/08 03:27:44;;;;;;;33.30;18.57;;;3.00;1.00;;;;;;5023909;28;20955;-73
2021/03/08 03:30:11;;;;;;;34.20;18.80;;;3.00;1.00;;;;;;5023995;28;20447;-74
2021/03/08 03:32:37;;;;;;;28.57;16.07;;;3.00;1.00;;;;;;5025151;28;21138;-74
2021/03/08 03:35:04;;;;;;;31.00;18.10;;;3.10;1.00;;;;;;5018485;28;20796;-74
2021/03/08 03:37:31;;;;;;;33.40;17.73;;;3.00;1.00;;;;;;5024256;28;20940;-72
2021/03/08 03:39:56;;;;;;;32.70;19.07;;;2.90;1.00;;;;;;5018569;28;20568;-73
2021/03/08 03:42:22;;;;;;;27.63;16.87;;;3.10;1.00;;;;;;5021031;28;20936;-72
2021/03/08 03:44:48;;;;;;;28.50;17.00;;;3.10;1.00;;;;;;5017858;28;20184;-73
2021/03/08 03:47:14;;;;;;;32.57;19.10;;;3.20;1.00;;;;;;5016568;28;20325;-73
2021/03/08 03:49:40;;;;;;;32.40;17.83;;;3.30;1.00;;;;;;5019502;28;20621;-73
2021/03/08 03:52:06;;;;;;;29.70;16.87;;;3.20;1.00;;;;;;5021591;28;20470;-72
2021/03/08 03:54:32;;;;;;;28.97;17.47;;;3.00;1.00;;;;;;5023247;28;20212;-73
2021/03/08 03:57:08;;;;;;;30.43;18.27;;;3.10;1.00;;;;;;5020333;28;20588;-72
2021/03/08 03:59:55;;;;;;;28.20;17.07;;;3.20;1.00;;;;;;5018000;28;20981;-73
2021/03/08 04:02:33;;;;;;;33.47;17.90;;;3.10;1.00;;;;;;5020488;28;21281;-72
2021/03/08 04:05:01;;;;;;;34.60;18.90;;;3.10;1.00;;;;;;5019962;28;20459;-73
2021/03/08 04:07:29;;;;;;;37.77;17.43;;;3.20;1.00;;;;;;5017739;28;20457;-72
2021/03/08 04:09:55;;;;;;;31.30;18.40;;;3.10;1.00;;;;;;5001481;28;22389;-72
2021/03/08 04:12:32;;;;;;;34.70;18.80;;;3.10;1.00;;;;;;5019260;28;20829;-72
2021/03/08 04:15:05;;;;;;;31.63;19.83;;;3.10;1.00;;;;;;5025817;28;20446;-73
2021/03/08 04:17:34;;;;;;;34.23;18.33;;;3.20;1.00;;;;;;5017050;28;20561;-72
2021/03/08 04:20:03;;;;;;;32.97;18.23;;;3.30;1.00;;;;;;5020365;28;20760;-72
2021/03/08 04:22:32;;;;;;;31.60;19.37;;;3.30;1.00;;;;;;5022491;28;20681;-72
2021/03/08 04:24:59;;;;;;;36.60;19.53;;;3.20;1.00;;;;;;5020849;28;21008;-73
2021/03/08 04:27:25;;;;;;;33.37;18.87;;;3.20;1.00;;;;;;5018446;28;21134;-72
2021/03/08 04:29:53;;;;;;;32.33;18.47;;;3.20;1.00;;;;;;5030262;28;20557;-72
2021/03/08 04:32:19;;;;;;;33.13;17.80;;;3.10;1.00;;;;;;5022770;28;20759;-72
2021/03/08 04:34:47;;;;;;;32.50;17.17;;;3.20;1.00;;;;;;5034766;28;20911;-73
2021/03/08 04:37:14;;;;;;;34.43;18.70;;;3.20;1.00;;;;;;5032846;28;20528;-72
2021/03/08 04:39:40;;;;;;;35.87;20.07;;;3.10;1.00;;;;;;5027244;28;20445;-72
2021/03/08 04:42:07;;;;;;;33.77;19.03;;;3.10;1.00;;;;;;5025754;28;20728;-73
2021/03/08 04:44:39;;;;;;;33.07;19.00;;;3.00;1.00;;;;;;5028363;28;20452;-72
2021/03/08 04:47:05;;;;;;;40.00;20.63;;;3.10;1.00;;;;;;5022304;28;20737;-73
2021/03/08 04:49:33;;;;;;;41.40;20.60;;;3.00;1.00;;;;;;5029497;28;20487;-72
2021/03/08 04:51:59;;;;;;;29.53;17.27;;;3.10;1.00;;;;;;5026644;28;21336;-74
2021/03/08 04:54:25;;;;;;;38.03;20.33;;;3.00;1.00;;;;;;5024151;28;20493;-72
2021/03/08 04:56:54;;;;;;;34.97;19.33;;;2.90;1.00;;;;;;5032633;28;20603;-72
2021/03/08 04:59:20;;;;;;;34.77;19.13;;;3.00;1.00;;;;;;5025634;28;21041;-72
2021/03/08 05:01:48;;;;;;;34.00;19.30;;;3.00;1.00;;;;;;5031004;28;20575;-73
2021/03/08 05:04:15;;;;;;;35.63;19.23;;;3.00;1.00;;;;;;5027675;28;20492;-72
2021/03/08 05:06:42;;;;;;;38.23;20.80;;;3.00;1.00;;;;;;5019925;28;20857;-73
2021/03/08 05:09:13;;;;;;;36.77;19.50;;;3.00;1.00;;;;;;5023480;28;20446;-72
2021/03/08 05:11:40;;;;;;;40.27;21.03;;;3.00;1.00;;;;;;5029329;28;21245;-72
2021/03/08 05:14:16;;;;;;;35.57;18.97;;;3.00;1.00;;;;;;5005326;28;21356;-74
2021/03/08 05:16:49;;;;;;;33.60;20.00;;;3.00;1.00;;;;;;5008114;28;20467;-73
2021/03/08 05:19:15;;;;;;;32.80;19.33;;;3.10;1.00;;;;;;5025611;28;20503;-73
2021/03/08 05:21:42;;;;;;;34.30;20.23;;;3.10;1.00;;;;;;5018551;28;20475;-73
2021/03/08 05:24:09;;;;;;;33.17;20.83;;;3.00;1.00;;;;;;5030454;28;20632;-73
2021/03/08 05:26:36;;;;;;;39.80;21.90;;;3.10;1.00;;;;;;5020593;28;20539;-73
2021/03/08 05:29:04;;;;;;;40.37;23.13;;;3.20;1.00;;;;;;5024363;28;20897;-74
2021/03/08 05:31:33;;;;;;;41.53;23.30;;;3.20;1.00;;;;;;5030959;28;20449;-73
2021/03/08 05:34:02;;;;;;;43.37;19.67;;;3.10;1.00;;;;;;5035146;28;20889;-74
2021/03/08 05:36:31;;;;;;;33.93;20.60;;;3.20;1.00;;;;;;5025141;28;20471;-74
2021/03/08 05:38:57;;;;;;;41.57;22.23;;;3.00;1.00;;;;;;5024978;28;20506;-74
2021/03/08 05:41:35;;;;;;;38.40;19.70;;;2.90;1.00;;;;;;5024436;28;20475;-74
2021/03/08 05:44:06;;;;;;;36.57;20.80;;;2.90;1.00;;;;;;5031110;28;21512;-74
2021/03/08 05:46:53;;;;;;;36.97;21.20;;;3.00;1.00;;;;;;5028898;28;20452;-73
2021/03/08 05:49:36;;;;;;;47.50;24.53;;;3.00;1.00;;;;;;5019282;28;20499;-74
2021/03/08 05:52:47;;;;;;;37.33;21.03;;;3.00;1.00;;;;;;5019478;28;21180;-74
2021/03/08 05:55:31;;;;;;;38.33;19.73;;;3.10;1.00;;;;;;5018081;28;21214;-74
2021/03/08 05:58:15;;;;;;;40.80;22.50;;;3.20;1.00;;;;;;5025091;28;20619;-74
2021/03/08 06:01:18;;;;;;;41.43;21.37;;;3.30;1.00;;;;;;5022324;28;20449;-73
2021/03/08 06:04:27;;;;;;;35.40;21.83;;;3.30;1.00;;;;;;5018084;28;20467;-74
2021/03/08 06:07:19;;;;;;;37.30;21.50;;;3.10;1.00;;;;;;4995174;28;20457;-74
2021/03/08 06:10:02;;;;;;;42.93;22.80;;;3.10;1.00;;;;;;4979013;28;20462;-74
2021/03/08 06:12:34;;;;;;;46.03;23.87;;;3.10;1.00;;;;;;5025491;28;20557;-74
2021/03/08 06:15:04;;;;;;;43.17;22.60;;;3.10;1.00;;;;;;5022624;28;20487;-73
2021/03/08 06:17:30;;;;;;;45.23;22.20;;;3.10;1.00;;;;;;5022331;28;20563;-74
2021/03/08 06:19:57;;;;;;;39.60;20.23;;;3.20;1.00;;;;;;5022609;28;20443;-74
2021/03/08 06:22:24;;;;;;;40.80;23.60;;;3.20;1.00;;;;;;5025411;28;20857;-73
2021/03/08 06:24:51;;;;;;;41.70;22.87;;;3.20;1.00;;;;;;5021125;28;20459;-74
2021/03/08 06:27:21;;;;;;;47.20;23.90;;;3.20;1.00;;;;;;5008679;28;20453;-74
2021/03/08 06:29:47;;;;;;;43.20;24.43;;;3.20;1.00;;;;;;5007671;28;20455;-74
2021/03/08 06:32:13;;;;;;;44.07;24.17;;;3.20;1.00;;;;;;5023002;28;20452;-74
2021/03/08 06:34:40;;;;;;;40.87;21.80;;;3.20;1.00;;;;;;5017654;28;21393;-74
2021/03/08 06:37:10;;;;;;;53.57;23.57;;;3.20;1.00;;;;;;5030605;28;20218;-74
2021/03/08 06:39:37;;;;;;;41.50;24.73;;;3.40;1.00;;;;;;5026106;28;20467;-74
2021/03/08 06:42:04;;;;;;;40.10;23.30;;;3.30;1.00;;;;;;5020654;28;20452;-73
2021/03/08 06:44:30;;;;;;;44.83;25.30;;;3.30;1.00;;;;;;5024188;28;20922;-73
2021/03/08 06:46:57;;;;;;;43.57;22.77;;;3.50;1.00;;;;;;5029871;28;20521;-74
2021/03/08 06:49:23;;;;;;;46.17;23.70;;;3.40;1.00;;;;;;5023634;28;20507;-73
2021/03/08 06:52:05;;;;;;;45.07;22.70;;;3.40;1.00;;;;;;5017479;28;20453;-73
2021/03/08 06:54:32;;;;;;;39.37;21.70;;;3.40;1.00;;;;;;5024209;28;20193;-73
2021/03/08 06:56:58;;;;;;;42.43;24.37;;;3.40;1.00;;;;;;5004980;28;20479;-73
2021/03/08 06:59:24;;;;;;;39.27;23.63;;;3.30;1.00;;;;;;5017817;28;20457;-74
2021/03/08 07:01:54;;;;;;;49.87;24.30;;;3.30;1.00;;;;;;5024663;28;20464;-71
2021/03/08 07:04:27;;;;;;;40.20;23.17;;;3.20;1.00;;;;;;5026502;28;20437;-73
2021/03/08 07:07:04;;;;;;;54.73;25.70;;;3.20;1.00;;;;;;5018506;28;20441;-74
2021/03/08 07:09:32;;;;;;;53.90;23.57;;;3.20;1.00;;;;;;5021632;28;20516;-74
2021/03/08 07:12:11;;;;;;;51.20;25.43;;;3.20;1.00;;;;;;5025083;28;20481;-74
2021/03/08 07:14:41;;;;;;;41.17;25.37;;;3.10;1.00;;;;;;5021914;28;20961;-74
2021/03/08 07:17:27;;;;;;;49.20;24.77;;;3.00;1.00;;;;;;5020680;28;20472;-73
2021/03/08 07:19:53;;;;;;;46.90;25.73;;;2.90;1.00;;;;;;5019103;28;21021;-73
2021/03/08 07:22:37;;;;;;;49.53;26.80;;;2.90;1.00;;;;;;5016720;28;20478;-74
2021/03/08 07:25:06;;;;;;;45.20;25.63;;;2.90;1.00;;;;;;5017563;28;20454;-73
2021/03/08 07:27:40;;;;;;;48.07;26.47;;;2.90;1.00;;;;;;5018682;28;20460;-73
2021/03/08 07:30:06;;;;;;;40.07;25.27;;;2.80;1.00;;;;;;5018254;28;20453;-74
2021/03/08 07:32:32;;;;;;;49.50;24.90;;;2.80;1.00;;;;;;5013728;28;21037;-74
2021/03/08 07:34:58;;;;;;;45.17;26.27;;;2.70;1.00;;;;;;5015810;28;20475;-74
2021/03/08 07:37:24;;;;;;;46.73;25.63;;;2.70;1.00;;;;;;5025113;28;20218;-74
2021/03/08 07:39:53;;;;;;;47.23;25.37;;;2.70;1.00;;;;;;4997838;28;20213;-74
2021/03/08 07:42:19;;;;;;;56.57;27.80;;;2.80;1.00;;;;;;5035593;28;20208;-74
2021/03/08 07:44:52;;;;;;;55.60;28.90;;;2.80;1.00;;;;;;5029302;28;20464;-74
2021/03/08 07:47:19;;;;;;;53.87;28.43;;;2.80;1.00;;;;;;5030480;28;20500;-73
2021/03/08 07:49:46;;;;;;;52.27;27.67;;;2.80;1.00;;;;;;5020410;28;20509;-74
2021/03/08 07:52:17;;;;;;;53.37;29.83;;;2.80;1.00;;;;;;5024205;28;20455;-74
2021/03/08 07:55:02;;;;;;;60.20;28.97;;;2.70;1.00;;;;;;5017641;28;20474;-74
2021/03/08 07:57:29;;;;;;;56.87;26.57;;;2.70;1.00;;;;;;5025245;28;21380;-73
2021/03/08 07:59:56;;;;;;;64.40;30.23;;;2.70;1.00;;;;;;5024177;28;21850;-73
2021/03/08 08:02:22;;;;;;;61.33;30.43;;;2.60;1.00;;;;;;5006369;28;21088;-74
2021/03/08 08:04:48;;;;;;;58.03;29.57;;;2.70;1.00;;;;;;5010710;28;20589;-74
2021/03/08 08:07:14;;;;;;;57.37;30.37;;;2.70;1.00;;;;;;5012445;28;21230;-73
2021/03/08 08:09:42;;;;;;;49.17;26.60;;;2.70;1.00;;;;;;5009275;28;20443;-73
2021/03/08 08:12:10;;;;;;;48.80;27.50;;;2.80;1.00;;;;;;5024378;28;20868;-73
2021/03/08 08:14:41;;;;;;;54.37;26.87;;;2.90;1.00;;;;;;5022532;28;20949;-74
2021/03/08 08:17:15;;;;;;;54.87;27.40;;;2.90;1.00;;;;;;5024807;28;20468;-74
2021/03/08 08:19:44;;;;;;;54.70;27.93;;;2.80;1.00;;;;;;5015855;28;20468;-73
2021/03/08 08:22:18;;;;;;;60.67;30.43;;;2.90;1.00;;;;;;5022391;28;20443;-73
2021/03/08 08:24:45;;;;;;;53.20;26.60;;;2.90;1.00;;;;;;5022420;28;20788;-74
2021/03/08 08:27:12;;;;;;;59.70;27.07;;;2.90;1.00;;;;;;5014957;28;22026;-73
2021/03/08 08:29:38;;;;;;;48.53;25.60;;;2.90;1.00;;;;;;5027528;28;20450;-74
2021/03/08 08:32:06;;;;;;;53.07;27.93;;;2.90;1.00;;;;;;5027402;28;20880;-73
2021/03/08 08:34:39;;;;;;;48.50;26.20;;;2.90;1.00;;;;;;5026006;28;21350;-73
2021/03/08 08:37:16;;;;;;;59.13;28.40;;;2.90;1.00;;;;;;5022426;28;20464;-74
2021/03/08 08:40:02;;;;;;;54.57;28.03;;;2.90;1.00;;;;;;5024451;28;20570;-74
2021/03/08 08:42:29;;;;;;;55.20;27.07;;;2.90;39.30;;;;;;5015944;28;20446;-74
2021/03/08 08:44:59;;;;;;;56.13;30.93;;;2.90;49.40;;;;;;5017016;28;20510;-74
2021/03/08 08:47:32;;;;;;;51.43;29.50;;;2.90;53.00;;;;;;5020272;28;20464;-74
2021/03/08 08:50:00;;;;;;;55.43;29.50;;;3.00;94.00;;;;;;5019673;28;20466;-73
2021/03/08 08:52:48;;;;;;;60.50;29.00;;;3.00;83.40;;;;;;5014022;28;20503;-74
2021/03/08 08:55:15;;;;;;;49.07;27.70;;;3.10;55.70;;;;;;5017489;28;20461;-73
2021/03/08 08:58:20;;;;;;;61.50;32.20;;;3.10;36.00;;;;;;5014266;28;20848;-73
2021/03/08 09:01:11;;;;;;;60.30;29.20;;;3.00;23.70;;;;;;5028195;28;20493;-73
2021/03/08 09:04:03;;;;;;;55.53;29.40;;;3.10;56.60;;;;;;5015337;28;20449;-72
2021/03/08 09:06:53;;;;;;;56.37;29.73;;;3.10;55.40;;;;;;5018861;28;20805;-73
2021/03/08 09:09:31;;;;;;;64.50;28.97;;;3.10;61.60;;;;;;5022589;28;20587;-73
2021/03/08 09:12:02;;;;;;;58.57;29.67;;;3.20;66.40;;;;;;5020474;28;20449;-73
2021/03/08 09:14:52;;;;;;;64.63;31.87;;;3.20;66.10;;;;;;5011622;28;20442;-73
2021/03/08 09:17:28;;;;;;;76.10;31.67;;;3.20;58.20;;;;;;5024017;28;20901;-73
2021/03/08 09:19:56;;;;;;;57.53;29.90;;;3.20;47.60;;;;;;5023733;28;20529;-73
2021/03/08 09:22:25;;;;;;;76.70;34.07;;;3.20;48.30;;;;;;5019029;28;20550;-73
2021/03/08 09:24:56;;;;;;;64.67;33.10;;;3.20;55.30;;;;;;5018194;28;20452;-73
2021/03/08 09:27:29;;;;;;;86.50;35.23;;;3.10;46.60;;;;;;5022533;28;21106;-73
2021/03/08 09:30:10;;;;;;;87.00;33.77;;;3.10;36.50;;;;;;5021346;28;21904;-73
2021/03/08 09:32:45;;;;;;;73.20;33.30;;;3.10;45.40;;;;;;5017089;28;20508;-72
2021/03/08 09:35:11;;;;;;;74.27;36.50;;;3.10;87.70;;;;;;5019109;28;21173;-73
2021/03/08 09:37:39;;;;;;;84.37;36.33;;;3.20;97.90;;;;;;5005680;28;20674;-73
2021/03/08 09:40:05;;;;;;;81.07;36.63;;;3.20;99.90;;;;;;5007039;28;21937;-73
2021/03/08 09:42:39;;;;;;;89.47;35.63;;;3.30;99.90;;;;;;5032109;28;20457;-73
2021/03/08 09:45:25;;;;;;;76.73;36.43;;;3.30;99.90;;;;;;5041223;28;20537;-73
2021/03/08 09:47:52;;;;;;;83.97;35.57;;;3.30;99.90;;;;;;5026453;28;20456;-73
2021/03/08 09:50:33;;;;;;;87.13;38.23;;;3.30;87.70;;;;;;5029686;28;20451;-73
2021/03/08 09:52:59;;;;;;;76.00;37.43;;;3.30;99.90;;;;;;5020112;28;21102;-73
2021/03/08 09:55:30;;;;;;;96.87;37.97;;;3.30;99.90;;;;;;5024801;28;20444;-73
2021/03/08 09:57:56;;;;;;;78.70;36.20;;;3.30;99.90;;;;;;5023375;28;20487;-73
2021/03/08 10:00:33;;;;;;;99.03;38.70;;;3.40;99.90;;;;;;5030669;28;20448;-73
2021/03/08 10:03:04;;;;;;;90.40;39.90;;;3.40;99.90;;;;;;5030008;28;21153;-73
2021/03/08 10:05:56;;;;;;;91.50;39.80;;;3.40;99.90;;;;;;5024816;28;20833;-73
2021/03/08 10:08:29;;;;;;;94.50;38.20;;;3.50;99.90;;;;;;5032538;28;20598;-73
2021/03/08 10:10:55;;;;;;;90.13;40.33;;;3.50;99.90;;;;;;5035563;28;22305;-73
2021/03/08 10:13:22;;;;;;;86.90;39.47;;;3.60;99.90;;;;;;5019764;28;20542;-73
2021/03/08 10:15:56;;;;;;;102.40;39.57;;;3.50;99.90;;;;;;5010678;28;20519;-73
2021/03/08 10:18:25;;;;;;;103.70;41.43;;;3.60;99.90;;;;;;5005275;28;20472;-73
2021/03/08 10:20:58;;;;;;;107.17;41.70;;;3.60;99.90;;;;;;5023109;28;20474;-72
2021/03/08 10:23:32;;;;;;;105.20;42.77;;;3.60;99.90;;;;;;5019284;28;20482;-73
2021/03/08 10:26:16;;;;;;;97.67;42.83;;;3.50;99.90;;;;;;5015477;28;20453;-73
2021/03/08 10:28:42;;;;;;;107.40;42.97;;;3.50;99.90;;;;;;5022787;28;21363;-73
2021/03/08 10:31:26;;;;;;;110.93;42.70;;;3.60;99.90;;;;;;5024616;28;20540;-73
2021/03/08 10:33:53;;;;;;;109.13;43.43;;;3.60;99.90;;;;;;5031159;28;20362;-75
2021/03/08 10:36:20;;;;;;;117.27;44.70;;;3.70;99.90;;;;;;5014453;28;21020;-73
2021/03/08 10:38:52;;;;;;;112.47;41.77;;;3.80;99.90;;;;;;5014412;28;21062;-73
2021/03/08 10:41:20;;;;;;;110.33;44.50;;;3.70;99.90;;;;;;5017352;28;20534;-73
2021/03/08 10:43:45;;;;;;;112.00;43.67;;;3.60;99.90;;;;;;5017569;28;20456;-73
2021/03/08 10:46:12;;;;;;;111.73;47.13;;;3.60;99.90;;;;;;5022562;28;20448;-73
2021/03/08 10:48:54;;;;;;;117.23;44.97;;;3.60;99.90;;;;;;5029091;28;20205;-73
2021/03/08 10:51:20;;;;;;;110.37;41.70;;;3.60;99.90;;;;;;5021904;28;20476;-73
2021/03/08 10:53:57;;;;;;;116.67;46.37;;;3.70;99.90;;;;;;5019695;28;21228;-74
2021/03/08 10:56:25;;;;;;;117.97;42.67;;;3.70;99.90;;;;;;5026828;28;20188;-73
2021/03/08 10:58:51;;;;;;;113.23;46.27;;;3.80;99.90;;;;;;5026923;28;20858;-73
2021/03/08 11:01:17;;;;;;;101.93;44.10;;;3.80;99.90;;;;;;5021811;28;20511;-74
2021/03/08 11:03:43;;;;;;;100.47;43.63;;;3.80;99.90;;;;;;5020588;28;21160;-74
2021/03/08 11:06:10;;;;;;;103.50;43.07;;;3.90;99.90;;;;;;5024831;28;20459;-73
2021/03/08 11:08:39;;;;;;;111.47;45.43;;;3.90;99.90;;;;;;5021750;28;20195;-73
2021/03/08 11:11:18;;;;;;;112.33;44.67;;;3.90;99.90;;;;;;5030576;28;20441;-73
2021/03/08 11:13:45;;;;;;;113.63;43.17;;;4.00;99.90;;;;;;5020920;28;20479;-73
2021/03/08 11:16:12;;;;;;;114.53;45.90;;;4.00;99.90;;;;;;5021044;28;20450;-73
2021/03/08 11:18:39;;;;;;;110.60;42.37;;;3.90;99.90;;;;;;5019072;28;20480;-73
2021/03/08 11:21:28;;;;;;;115.57;46.43;;;4.00;99.90;;;;;;5000687;28;22792;-73
2021/03/08 11:24:23;;;;;;;107.97;43.90;;;4.00;99.90;;;;;;5018078;28;20452;-73
2021/03/08 11:27:11;;;;;;;96.40;42.27;;;4.10;99.90;;;;;;5016684;28;20449;-73
2021/03/08 11:29:39;;;;;;;108.43;43.13;;;4.10;99.90;;;;;;5027132;28;20472;-74
2021/03/08 11:32:07;;;;;;;100.00;39.97;;;4.10;99.90;;;;;;5021496;28;20829;-73
2021/03/08 11:34:41;;;;;;;102.33;41.23;;;4.10;99.90;;;;;;5019023;28;20478;-73
2021/03/08 11:37:17;;;;;;;94.53;41.77;;;4.20;99.90;;;;;;5021378;28;20474;-73
2021/03/08 11:39:45;;;;;;;100.07;38.00;;;4.20;99.90;;;;;;5018653;28;20447;-73
2021/03/08 11:42:13;;;;;;;100.43;42.37;;;4.30;99.90;;;;;;5020846;28;20577;-73
2021/03/08 11:44:39;;;;;;;111.27;41.83;;;4.20;99.90;;;;;;5000044;28;21484;-75
2021/03/08 11:47:05;;;;;;;98.70;41.53;;;4.20;99.90;;;;;;5017000;28;20460;-73
2021/03/08 11:49:31;;;;;;;88.90;40.40;;;4.20;99.90;;;;;;5019704;28;20499;-74
2021/03/08 11:51:58;;;;;;;98.97;43.33;;;4.30;99.90;;;;;;5017170;28;20459;-73
2021/03/08 11:54:24;;;;;;;108.50;40.90;;;4.30;92.20;;;;;;5000595;28;20482;-74
2021/03/08 11:56:50;;;;;;;97.43;40.90;;;4.30;72.40;;;;;;5013508;28;20474;-73
2021/03/08 11:59:17;;;;;;;102.37;41.13;;;4.30;56.50;;;;;;5017216;28;20175;-73
2021/03/08 12:01:43;;;;;;;106.57;44.60;;;4.30;42.20;;;;;;5013342;28;20652;-73
2021/03/08 12:04:08;;;;;;;88.23;39.80;;;4.30;46.50;;;;;;5012059;28;20875;-73
2021/03/08 12:06:34;;;;;;;96.30;38.87;;;4.20;42.90;;;;;;5012353;28;20189;-73
2021/03/08 12:09:00;;;;;;;108.47;43.93;;;4.30;40.80;;;;;;5009613;28;20613;-73
2021/03/08 12:11:26;;;;;;;114.00;43.40;;;4.40;57.60;;;;;;5018726;28;20482;-73
2021/03/08 12:13:51;;;;;;;107.07;42.20;;;4.60;43.00;;;;;;5018513;28;20681;-73
2021/03/08 12:16:17;;;;;;;103.57;42.90;;;4.50;23.30;;;;;;5020042;28;20538;-73
2021/03/08 12:18:43;;;;;;;120.67;43.53;;;4.50;18.40;;;;;;5020882;28;20485;-73
2021/03/08 12:21:08;;;;;;;109.10;43.70;;;4.50;9.60;;;;;;5030926;28;20274;-73
2021/03/08 12:23:34;;;;;;;112.50;44.80;;;4.50;2.70;;;;;;5010417;28;20222;-73
2021/03/08 12:26:00;;;;;;;113.53;46.80;;;4.50;1.00;;;;;;5016731;28;20856;-73
2021/03/08 12:28:26;;;;;;;118.27;47.30;;;4.40;1.00;;;;;;5024378;28;20446;-73
2021/03/08 12:30:52;;;;;;;101.27;43.33;;;4.40;4.90;;;;;;5025405;28;20209;-72
2021/03/08 12:33:18;;;;;;;108.80;47.67;;;4.50;18.50;;;;;;5018630;28;20210;-73
2021/03/08 12:35:44;;;;;;;115.27;46.17;;;4.80;13.40;;;;;;5016218;28;20643;-73
2021/03/08 12:38:10;;;;;;;107.17;43.30;;;4.70;1.00;;;;;;5016252;28;20489;-75
2021/03/08 12:40:36;;;;;;;106.53;43.40;;;4.70;1.00;;;;;;5026752;28;20981;-73
2021/03/08 12:43:02;;;;;;;109.13;45.37;;;4.70;1.00;;;;;;5021712;28;20190;-74
2021/03/08 12:45:28;;;;;;;110.47;44.07;;;4.70;1.00;;;;;;5021310;28;20259;-73
2021/03/08 12:47:53;;;;;;;114.83;44.97;;;4.70;1.00;;;;;;5020286;28;20480;-75
2021/03/08 12:50:19;;;;;;;118.73;44.37;;;4.60;1.00;;;;;;5016866;28;20263;-73
2021/03/08 12:52:45;;;;;;;115.37;47.27;;;4.60;1.00;;;;;;5018139;28;20191;-73
2021/03/08 12:55:11;;;;;;;107.70;44.80;;;4.50;1.00;;;;;;5017263;28;20460;-73
2021/03/08 12:57:37;;;;;;;120.37;46.90;;;4.50;1.00;;;;;;5029737;28;20198;-73
2021/03/08 13:00:05;;;;;;;128.17;51.97;;;4.50;1.00;;;;;;5021899;28;20461;-73